Gifu, Japan
Current Conditions -  °F | °C
As of 5:30 AM on Saturday 01 Nov 2014 (Local Time) from RJGG Reporting Station
Rain Showers Rain Showers  
Wind Chill: 61°   Ceiling: 2500
Heat Index: 61°   Visibility: 5mi
Dew Point: 59°   Wind: 6mph
Humidity: 94%   Direction: 10°N
Pressure: 30.03"   Gusts: NA
Location:  35.42°N, 136.76°E
Report Text: RJGG 312030Z 01005KT 8000 -SHRA FEW005 BKN025 16/15 Q1017 BECMG 10012KT TEMPO 4000 SHRA BR
Loading
Personal Weather Stations






























Interactive Weather Map
Tropical Storm Tracking
New forecast layout! Learn more

10-Day Weather Forecast

Advertisements
Track Severe Weather on mobile